Time;durP1;ratioP1;P1;durP2;ratioP2;P2;SDS_P1;SDS_P2;PMS_P1;PMS_P2;Temp;Humidity;BMP_temperature;BMP_pressure;BME280_temperature;BME280_humidity;BME280_pressure;Samples;Min_cycle;Max_cycle;Signal;HPM_P1;HPM_P2
2022/11/15 00:02:15;;;;;;;1.38;1.30;;;;;;;;;;5054330;28;20045;-85
2022/11/15 00:04:42;;;;;;;2.35;1.38;;;;;;;;;;5055056;28;20103;-86
2022/11/15 00:07:08;;;;;;;3.13;2.50;;;;;;;;;;5054422;28;20453;-85
2022/11/15 00:09:36;;;;;;;2.38;2.20;;;;;;;;;;5059717;28;20044;-85
2022/11/15 00:12:03;;;;;;;3.45;2.78;;;;;;;;;;5054844;28;20091;-85
2022/11/15 00:14:29;;;;;;;0.88;0.85;;;;;;;;;;5054974;28;20061;-85
2022/11/15 00:16:56;;;;;;;2.25;2.15;;;;;;;;;;5054255;28;20053;-85
2022/11/15 00:19:22;;;;;;;2.00;1.90;;;;;;;;;;5054582;28;20102;-85
2022/11/15 00:21:49;;;;;;;2.97;2.03;;;;;;;;;;5054225;28;20052;-85
2022/11/15 00:24:15;;;;;;;0.95;0.70;;;;;;;;;;5054499;28;20053;-85
2022/11/15 00:26:43;;;;;;;1.33;1.33;;;;;;;;;;5054095;28;20056;-85
2022/11/15 00:29:10;;;;;;;3.55;3.33;;;;;;;;;;5054075;28;20048;-85
2022/11/15 00:31:36;;;;;;;4.22;2.78;;;;;;;;;;5054120;28;20056;-85
2022/11/15 00:34:02;;;;;;;2.67;2.47;;;;;;;;;;5054216;28;20083;-86
2022/11/15 00:36:29;;;;;;;1.42;1.33;;;;;;;;;;5053874;28;20102;-85
2022/11/15 00:38:55;;;;;;;2.50;2.35;;;;;;;;;;5053979;28;20075;-85
2022/11/15 00:41:22;;;;;;;2.30;2.17;;;;;;;;;;5053470;28;20111;-85
2022/11/15 00:43:50;;;;;;;2.45;2.30;;;;;;;;;;5054085;28;20048;-85
2022/11/15 00:46:16;;;;;;;10.38;3.08;;;;;;;;;;5053889;28;20045;-85
2022/11/15 00:48:43;;;;;;;2.25;2.15;;;;;;;;;;5054322;28;20494;-85
2022/11/15 00:51:09;;;;;;;2.65;2.55;;;;;;;;;;5053459;28;20049;-85
2022/11/15 00:53:36;;;;;;;1.63;1.52;;;;;;;;;;5054446;28;20099;-85
2022/11/15 00:56:02;;;;;;;3.25;2.80;;;;;;;;;;5053625;28;20063;-85
2022/11/15 00:58:29;;;;;;;2.65;2.55;;;;;;;;;;5053816;28;20056;-85
2022/11/15 01:00:57;;;;;;;4.45;3.95;;;;;;;;;;5053601;28;20045;-85
2022/11/15 01:03:23;;;;;;;1.65;1.55;;;;;;;;;;5057150;28;20052;-85
2022/11/15 01:05:50;;;;;;;3.03;2.85;;;;;;;;;;5050563;28;20100;-85
2022/11/15 01:08:17;;;;;;;4.15;1.40;;;;;;;;;;5014199;28;20046;-85
2022/11/15 01:10:43;;;;;;;2.67;2.53;;;;;;;;;;5015325;28;20057;-85
2022/11/15 01:13:10;;;;;;;2.90;2.67;;;;;;;;;;5014553;28;20137;-84
2022/11/15 01:15:39;;;;;;;4.05;3.72;;;;;;;;;;5013619;28;20468;-85
2022/11/15 01:18:07;;;;;;;3.05;2.65;;;;;;;;;;5013687;28;20466;-85
2022/11/15 01:20:34;;;;;;;0.85;0.85;;;;;;;;;;5014073;28;20057;-85
2022/11/15 01:23:00;;;;;;;2.00;1.88;;;;;;;;;;5013479;28;20503;-85
2022/11/15 01:25:27;;;;;;;2.75;2.65;;;;;;;;;;5013967;28;20112;-85
2022/11/15 01:27:53;;;;;;;0.57;0.57;;;;;;;;;;5013925;28;20093;-85
2022/11/15 01:30:20;;;;;;;1.23;1.15;;;;;;;;;;5013715;28;20049;-85
2022/11/15 01:32:46;;;;;;;3.08;2.88;;;;;;;;;;5013668;28;20112;-85
2022/11/15 01:35:14;;;;;;;1.63;1.52;;;;;;;;;;5013746;28;20057;-85
2022/11/15 01:37:40;;;;;;;1.77;1.67;;;;;;;;;;5013667;28;20054;-84
2022/11/15 01:40:07;;;;;;;1.25;1.20;;;;;;;;;;5012860;28;20049;-84
2022/11/15 01:42:34;;;;;;;1.65;1.55;;;;;;;;;;5013716;28;20049;-85
2022/11/15 01:45:01;;;;;;;5.22;4.82;;;;;;;;;;5013349;28;20057;-85
2022/11/15 01:47:29;;;;;;;2.50;2.40;;;;;;;;;;5013421;28;20112;-84
2022/11/15 01:49:57;;;;;;;1.42;1.33;;;;;;;;;;5013312;28;20050;-85
2022/11/15 01:52:26;;;;;;;3.13;2.92;;;;;;;;;;5013155;28;20046;-84
2022/11/15 01:54:56;;;;;;;2.30;1.58;;;;;;;;;;5013387;28;20049;-85
2022/11/15 01:57:23;;;;;;;1.33;1.27;;;;;;;;;;5014172;28;20053;-85
2022/11/15 01:59:49;;;;;;;1.58;1.48;;;;;;;;;;5017420;28;20050;-85
2022/11/15 02:02:16;;;;;;;3.38;3.28;;;;;;;;;;5013489;28;20049;-84
2022/11/15 02:04:43;;;;;;;2.20;2.00;;;;;;;;;;5012843;28;20080;-85
2022/11/15 02:07:11;;;;;;;0.93;0.93;;;;;;;;;;5012928;28;20058;-85
2022/11/15 02:09:39;;;;;;;1.65;1.55;;;;;;;;;;5012809;28;20045;-85
2022/11/15 02:12:07;;;;;;;1.52;1.42;;;;;;;;;;5012686;28;20108;-85
2022/11/15 02:14:34;;;;;;;1.27;1.17;;;;;;;;;;5012478;28;20436;-85
2022/11/15 02:17:03;;;;;;;1.42;1.27;;;;;;;;;;5012972;28;20053;-85
2022/11/15 02:19:39;;;;;;;2.13;1.98;;;;;;;;;;5012487;28;20085;-85
2022/11/15 02:22:11;;;;;;;1.30;1.20;;;;;;;;;;5013044;28;20087;-85
2022/11/15 02:25:04;;;;;;;2.17;1.92;;;;;;;;;;5013131;28;20050;-85
2022/11/15 02:27:55;;;;;;;2.25;2.05;;;;;;;;;;4971863;28;20055;-85
2022/11/15 02:30:28;;;;;;;4.53;1.98;;;;;;;;;;4971763;28;20137;-84
2022/11/15 02:32:58;;;;;;;0.80;0.80;;;;;;;;;;4972203;28;20465;-85
2022/11/15 02:35:30;;;;;;;3.67;3.38;;;;;;;;;;4970927;28;20050;-85
2022/11/15 02:37:58;;;;;;;1.98;1.88;;;;;;;;;;4987192;28;20054;-85
2022/11/15 02:40:30;;;;;;;2.78;1.83;;;;;;;;;;4990315;28;20100;-84
2022/11/15 02:45:46;;;;;;;2.33;2.13;;;;;;;;;;4990974;28;20101;-84
2022/11/15 02:48:13;;;;;;;0.90;0.77;;;;;;;;;;4991082;28;20058;-84
2022/11/15 02:50:39;;;;;;;3.08;2.30;;;;;;;;;;4993531;28;20057;-85
2022/11/15 02:53:06;;;;;;;4.10;3.38;;;;;;;;;;4997708;28;20050;-85
2022/11/15 02:55:33;;;;;;;1.52;1.42;;;;;;;;;;4996989;28;20058;-84
2022/11/15 02:58:07;;;;;;;1.15;1.08;;;;;;;;;;4994373;28;20050;-85
2022/11/15 03:00:36;;;;;;;3.05;2.92;;;;;;;;;;4995307;28;20046;-86
2022/11/15 03:03:20;;;;;;;3.20;2.97;;;;;;;;;;5018149;28;20414;-86
2022/11/15 03:05:53;;;;;;;2.67;1.55;;;;;;;;;;5042070;28;20079;-86
2022/11/15 03:08:23;;;;;;;2.90;2.70;;;;;;;;;;5055822;28;20454;-86
2022/11/15 03:10:56;;;;;;;0.80;0.80;;;;;;;;;;5056196;28;20060;-86
2022/11/15 03:13:27;;;;;;;2.05;1.95;;;;;;;;;;5055270;28;20061;-85
2022/11/15 03:15:58;;;;;;;2.00;1.60;;;;;;;;;;5037300;28;20096;-85
2022/11/15 03:18:29;;;;;;;1.77;1.67;;;;;;;;;;5015883;28;20458;-85
2022/11/15 03:20:58;;;;;;;2.05;1.85;;;;;;;;;;5015749;28;20128;-85
2022/11/15 03:23:26;;;;;;;2.25;2.15;;;;;;;;;;5049505;28;20060;-85
2022/11/15 03:25:54;;;;;;;1.65;1.55;;;;;;;;;;5055287;28;20053;-85
2022/11/15 03:28:23;;;;;;;3.33;1.45;;;;;;;;;;5023662;28;20058;-85
2022/11/15 03:30:51;;;;;;;2.25;2.15;;;;;;;;;;5015782;28;20116;-85
2022/11/15 03:33:18;;;;;;;2.45;2.05;;;;;;;;;;5016084;28;20046;-85
2022/11/15 03:35:45;;;;;;;4.15;3.95;;;;;;;;;;5015876;28;20507;-85
2022/11/15 03:38:16;;;;;;;3.63;3.33;;;;;;;;;;5015860;28;20457;-85
2022/11/15 03:40:46;;;;;;;2.63;2.53;;;;;;;;;;5015425;28;20056;-85
2022/11/15 03:43:25;;;;;;;4.10;3.40;;;;;;;;;;5015446;28;20124;-85
2022/11/15 03:45:54;;;;;;;1.98;1.88;;;;;;;;;;5015446;28;20112;-85
2022/11/15 03:48:22;;;;;;;2.33;2.22;;;;;;;;;;5021360;28;20058;-85
2022/11/15 03:50:49;;;;;;;1.70;1.60;;;;;;;;;;5015388;28;20046;-85
2022/11/15 03:53:17;;;;;;;2.72;2.50;;;;;;;;;;5015504;28;20050;-85
2022/11/15 03:55:44;;;;;;;3.03;2.00;;;;;;;;;;5015576;28;20046;-85
2022/11/15 03:58:10;;;;;;;2.35;1.90;;;;;;;;;;5015521;28;20487;-85
2022/11/15 04:00:37;;;;;;;1.48;1.38;;;;;;;;;;5014912;28;20506;-85
2022/11/15 04:03:03;;;;;;;3.05;2.85;;;;;;;;;;5020537;28;20081;-85
2022/11/15 04:05:30;;;;;;;1.17;1.08;;;;;;;;;;5015606;28;20065;-85
2022/11/15 04:07:56;;;;;;;4.55;4.20;;;;;;;;;;5014962;28;20050;-85
2022/11/15 04:10:24;;;;;;;1.30;1.20;;;;;;;;;;5015050;28;20101;-85
2022/11/15 04:12:51;;;;;;;1.92;1.65;;;;;;;;;;5015701;28;20054;-85
2022/11/15 04:15:18;;;;;;;1.17;1.17;;;;;;;;;;5014862;28;20100;-85
2022/11/15 04:17:45;;;;;;;6.60;3.53;;;;;;;;;;5032218;28;20079;-86
2022/11/15 04:25:43;;;;;;;2.20;1.95;;;;;;;;;;5054578;28;20063;-85
2022/11/15 04:28:09;;;;;;;2.15;2.05;;;;;;;;;;5053866;28;20110;-86
2022/11/15 04:30:36;;;;;;;8.20;3.30;;;;;;;;;;5054678;28;20102;-86
2022/11/15 04:33:02;;;;;;;5.28;2.85;;;;;;;;;;5054132;28;20049;-86
2022/11/15 04:35:29;;;;;;;2.60;2.40;;;;;;;;;;5054412;28;20060;-86
2022/11/15 04:37:55;;;;;;;1.38;1.27;;;;;;;;;;5054217;28;20052;-86
2022/11/15 04:40:22;;;;;;;2.70;2.60;;;;;;;;;;5054577;28;20049;-86
2022/11/15 04:42:50;;;;;;;3.80;2.47;;;;;;;;;;5044383;28;20049;-86
2022/11/15 04:45:16;;;;;;;2.80;2.60;;;;;;;;;;5014233;28;20100;-86
2022/11/15 04:47:44;;;;;;;1.85;1.73;;;;;;;;;;5014241;28;20080;-86
2022/11/15 04:50:13;;;;;;;2.75;2.55;;;;;;;;;;5013880;28;20054;-86
2022/11/15 04:52:39;;;;;;;4.05;3.78;;;;;;;;;;5013994;28;20060;-86
2022/11/15 04:55:06;;;;;;;3.80;3.20;;;;;;;;;;5014201;28;20046;-87
2022/11/15 04:57:32;;;;;;;2.42;2.33;;;;;;;;;;5014435;28;20045;-86
2022/11/15 05:00:00;;;;;;;3.72;2.55;;;;;;;;;;5013851;28;20108;-86
2022/11/15 05:04:18;;;;;;;2.67;2.47;;;;;;;;;;5014375;28;20443;-86
2022/11/15 05:05:12;;;;;;;4.93;1.63;;;;;;;;;;5013778;28;20132;-86
2022/11/15 05:07:39;;;;;;;3.60;3.40;;;;;;;;;;5014129;28;20125;-86
2022/11/15 05:10:05;;;;;;;2.97;2.78;;;;;;;;;;5014312;28;20131;-86
2022/11/15 05:12:32;;;;;;;3.65;3.22;;;;;;;;;;5013858;28;20042;-86
2022/11/15 05:15:00;;;;;;;1.85;1.75;;;;;;;;;;5013211;28;20176;-86
2022/11/15 05:17:26;;;;;;;2.45;2.20;;;;;;;;;;5013902;28;20058;-86
2022/11/15 05:19:53;;;;;;;3.50;3.30;;;;;;;;;;5013979;28;20049;-86
2022/11/15 05:22:19;;;;;;;2.40;2.20;;;;;;;;;;5014255;28;20053;-86
2022/11/15 05:24:46;;;;;;;3.53;3.33;;;;;;;;;;5014052;28;20046;-86
2022/11/15 05:27:12;;;;;;;3.42;3.28;;;;;;;;;;5013821;28;20057;-85
2022/11/15 05:29:39;;;;;;;6.13;5.55;;;;;;;;;;5031052;28;20045;-86
2022/11/15 05:32:09;;;;;;;5.05;3.50;;;;;;;;;;5033208;28;20088;-85
2022/11/15 05:34:36;;;;;;;4.28;3.85;;;;;;;;;;5052255;28;20056;-85
2022/11/15 05:37:04;;;;;;;3.05;2.80;;;;;;;;;;5046679;28;20037;-86
2022/11/15 05:39:31;;;;;;;3.92;3.55;;;;;;;;;;5032402;28;20491;-85
2022/11/15 05:42:00;;;;;;;5.30;4.80;;;;;;;;;;5032337;28;20060;-86
2022/11/15 05:44:26;;;;;;;3.70;3.40;;;;;;;;;;5014715;28;20100;-86
2022/11/15 05:46:54;;;;;;;6.22;3.22;;;;;;;;;;5012605;28;20054;-85
2022/11/15 05:49:24;;;;;;;4.05;2.03;;;;;;;;;;5013175;28;20054;-86
2022/11/15 05:51:52;;;;;;;3.30;3.00;;;;;;;;;;5012540;28;20058;-86
2022/11/15 05:54:19;;;;;;;3.58;3.38;;;;;;;;;;5012323;28;20057;-85
2022/11/15 05:56:46;;;;;;;6.00;5.55;;;;;;;;;;5012110;28;20058;-85
2022/11/15 05:59:12;;;;;;;4.20;3.90;;;;;;;;;;5012551;28;20053;-85
2022/11/15 06:01:39;;;;;;;6.07;4.25;;;;;;;;;;5012642;28;20058;-84
2022/11/15 06:04:06;;;;;;;5.80;5.30;;;;;;;;;;5022296;28;20046;-84
2022/11/15 06:06:34;;;;;;;5.45;5.05;;;;;;;;;;5018455;28;20496;-85
2022/11/15 06:09:00;;;;;;;3.67;3.05;;;;;;;;;;5026256;28;20104;-85
2022/11/15 06:11:27;;;;;;;1.65;1.35;;;;;;;;;;5031887;28;20100;-85
2022/11/15 06:13:54;;;;;;;2.75;2.50;;;;;;;;;;5042757;28;20110;-85
2022/11/15 06:16:21;;;;;;;4.00;3.72;;;;;;;;;;5019493;28;20160;-85
2022/11/15 06:18:47;;;;;;;3.95;2.70;;;;;;;;;;5012020;28;20050;-84
2022/11/15 06:21:14;;;;;;;1.33;1.25;;;;;;;;;;5012120;28;20046;-84
2022/11/15 06:23:42;;;;;;;3.65;3.45;;;;;;;;;;5011990;28;20470;-85
2022/11/15 06:26:08;;;;;;;3.42;2.83;;;;;;;;;;5011727;28;20050;-85
2022/11/15 06:28:35;;;;;;;2.97;2.70;;;;;;;;;;5012730;28;20053;-85
2022/11/15 06:31:05;;;;;;;3.78;3.28;;;;;;;;;;5017250;28;20046;-85
2022/11/15 06:33:32;;;;;;;1.52;1.45;;;;;;;;;;5013485;28;20084;-85
2022/11/15 06:36:01;;;;;;;3.88;2.67;;;;;;;;;;5011611;28;20522;-85
2022/11/15 06:38:27;;;;;;;2.38;2.28;;;;;;;;;;5024766;28;20041;-85
2022/11/15 06:40:55;;;;;;;4.40;3.97;;;;;;;;;;5051490;28;20049;-84
2022/11/15 06:43:21;;;;;;;1.65;1.55;;;;;;;;;;5024156;28;20558;-85
2022/11/15 06:45:48;;;;;;;2.00;1.90;;;;;;;;;;5011175;28;20049;-85
2022/11/15 06:48:15;;;;;;;4.00;3.17;;;;;;;;;;5011975;28;20462;-85
2022/11/15 06:50:41;;;;;;;4.45;3.10;;;;;;;;;;5012012;28;20484;-84
2022/11/15 06:53:08;;;;;;;5.00;2.65;;;;;;;;;;5014752;28;20112;-85
2022/11/15 06:55:34;;;;;;;4.32;4.03;;;;;;;;;;5022129;28;20045;-84
2022/11/15 06:58:02;;;;;;;2.33;2.20;;;;;;;;;;5023166;28;20100;-85
2022/11/15 07:00:29;;;;;;;5.72;3.08;;;;;;;;;;5012444;28;20423;-84
2022/11/15 07:02:55;;;;;;;3.50;3.20;;;;;;;;;;5012116;28;20054;-86
2022/11/15 07:05:22;;;;;;;5.55;3.58;;;;;;;;;;5011722;28;20558;-85
2022/11/15 07:07:52;;;;;;;13.63;3.95;;;;;;;;;;5012322;28;20054;-83
2022/11/15 07:10:18;;;;;;;4.00;3.70;;;;;;;;;;5014016;28;20065;-85
2022/11/15 07:12:47;;;;;;;3.85;3.55;;;;;;;;;;5012812;28;20063;-85
2022/11/15 07:15:15;;;;;;;3.70;2.35;;;;;;;;;;5013173;28;20101;-85
2022/11/15 07:17:42;;;;;;;3.75;3.40;;;;;;;;;;5014324;28;20050;-84
2022/11/15 07:20:09;;;;;;;2.72;2.53;;;;;;;;;;5012167;28;20050;-84
2022/11/15 07:22:35;;;;;;;4.95;4.55;;;;;;;;;;5013111;28;20108;-85
2022/11/15 07:25:02;;;;;;;5.03;3.85;;;;;;;;;;5017603;28;20073;-86
2022/11/15 07:27:28;;;;;;;3.13;2.92;;;;;;;;;;5016119;28;20077;-84
2022/11/15 07:29:55;;;;;;;3.20;2.63;;;;;;;;;;5012944;28;20046;-85
2022/11/15 07:32:23;;;;;;;14.40;3.13;;;;;;;;;;5014736;28;20054;-85
2022/11/15 07:34:49;;;;;;;8.18;4.53;;;;;;;;;;5041759;28;20049;-85
2022/11/15 07:37:17;;;;;;;4.80;4.40;;;;;;;;;;5033309;28;20084;-85
2022/11/15 07:39:44;;;;;;;4.13;3.85;;;;;;;;;;5049647;28;20135;-82
2022/11/15 07:44:55;;;;;;;4.00;3.58;;;;;;;;;;5035600;28;20164;-84
2022/11/15 07:47:23;;;;;;;6.68;4.93;;;;;;;;;;5035699;28;20049;-84
2022/11/15 07:49:49;;;;;;;6.38;4.93;;;;;;;;;;5021380;28;20050;-84
2022/11/15 07:52:16;;;;;;;4.93;4.53;;;;;;;;;;5016272;28;20107;-83
2022/11/15 07:54:42;;;;;;;5.63;5.22;;;;;;;;;;5015988;28;20049;-85
2022/11/15 07:57:10;;;;;;;5.53;5.03;;;;;;;;;;5015496;28;20557;-85
2022/11/15 07:59:36;;;;;;;3.17;2.97;;;;;;;;;;5015845;28;20100;-85
2022/11/15 08:02:03;;;;;;;5.80;4.30;;;;;;;;;;5016275;28;20052;-84
2022/11/15 08:04:31;;;;;;;4.35;4.03;;;;;;;;;;5024250;28;20387;-84
2022/11/15 08:06:57;;;;;;;6.63;6.05;;;;;;;;;;5014834;28;20046;-84
2022/11/15 08:09:24;;;;;;;5.57;3.85;;;;;;;;;;5015696;28;20487;-84
2022/11/15 08:11:50;;;;;;;10.55;4.22;;;;;;;;;;5015411;28;20050;-84
2022/11/15 08:14:17;;;;;;;6.45;5.47;;;;;;;;;;5017772;28;20609;-85
2022/11/15 08:16:43;;;;;;;12.15;6.65;;;;;;;;;;5027696;28;20050;-85
2022/11/15 08:19:10;;;;;;;8.02;5.68;;;;;;;;;;5044006;28;20674;-85
2022/11/15 08:21:37;;;;;;;3.80;3.50;;;;;;;;;;5055802;28;20103;-83
2022/11/15 08:24:04;;;;;;;7.88;5.85;;;;;;;;;;5054799;28;20052;-84
2022/11/15 08:26:31;;;;;;;5.63;5.18;;;;;;;;;;5054774;28;20098;-84
2022/11/15 08:28:57;;;;;;;25.02;8.57;;;;;;;;;;5040363;28;20050;-85
2022/11/15 08:31:24;;;;;;;7.78;6.72;;;;;;;;;;5014206;28;20050;-83
2022/11/15 08:33:50;;;;;;;4.15;3.85;;;;;;;;;;5014766;28;20049;-84
2022/11/15 08:36:17;;;;;;;7.68;5.78;;;;;;;;;;5014829;28;20459;-84
2022/11/15 08:38:45;;;;;;;5.60;5.10;;;;;;;;;;5015595;28;20055;-83
2022/11/15 08:41:17;;;;;;;3.72;3.40;;;;;;;;;;5017329;28;20038;-84
2022/11/15 08:43:43;;;;;;;10.30;7.03;;;;;;;;;;5015881;28;20045;-83
2022/11/15 08:46:12;;;;;;;7.05;4.15;;;;;;;;;;5018084;28;20057;-85
2022/11/15 08:48:38;;;;;;;6.13;5.53;;;;;;;;;;5021768;28;20046;-85
2022/11/15 08:51:05;;;;;;;6.13;5.53;;;;;;;;;;5054852;28;20049;-85
2022/11/15 08:53:31;;;;;;;2.83;2.63;;;;;;;;;;5054391;28;20045;-84
2022/11/15 08:55:59;;;;;;;7.53;6.63;;;;;;;;;;5053364;28;20115;-84
2022/11/15 08:58:26;;;;;;;8.75;6.80;;;;;;;;;;5054013;28;20053;-84
2022/11/15 09:00:52;;;;;;;8.60;6.28;;;;;;;;;;5053809;28;20450;-84
2022/11/15 09:03:19;;;;;;;19.00;8.02;;;;;;;;;;5053963;28;20111;-84
2022/11/15 09:05:45;;;;;;;13.82;6.20;;;;;;;;;;5053034;28;20049;-83
2022/11/15 09:08:12;;;;;;;9.00;5.68;;;;;;;;;;5054890;28;20122;-84
2022/11/15 09:10:39;;;;;;;9.77;7.75;;;;;;;;;;5053624;28;20049;-84
2022/11/15 09:13:07;;;;;;;12.25;6.13;;;;;;;;;;5056995;28;20049;-85
2022/11/15 09:15:33;;;;;;;9.27;7.93;;;;;;;;;;5054372;28;20053;-84
2022/11/15 09:18:00;;;;;;;5.55;3.97;;;;;;;;;;5053833;28;20064;-83
2022/11/15 09:20:26;;;;;;;12.50;9.38;;;;;;;;;;5052520;28;20044;-84
2022/11/15 09:22:53;;;;;;;6.10;5.55;;;;;;;;;;5053156;28;20079;-83
2022/11/15 09:25:19;;;;;;;9.15;7.95;;;;;;;;;;5052884;28;20057;-83
2022/11/15 09:27:46;;;;;;;6.13;5.30;;;;;;;;;;5053065;28;20053;-83
2022/11/15 09:30:14;;;;;;;5.07;4.63;;;;;;;;;;5052399;28;20045;-84
2022/11/15 09:32:41;;;;;;;6.80;4.78;;;;;;;;;;5053323;28;20053;-84
2022/11/15 09:35:07;;;;;;;7.05;6.55;;;;;;;;;;5052328;28;20480;-83
2022/11/15 09:37:34;;;;;;;9.07;7.45;;;;;;;;;;5052476;28;20049;-84
2022/11/15 09:40:00;;;;;;;4.43;3.20;;;;;;;;;;5052780;28;20406;-83
2022/11/15 09:42:33;;;;;;;8.18;5.45;;;;;;;;;;5052983;28;20045;-83
2022/11/15 09:45:06;;;;;;;7.38;6.63;;;;;;;;;;5052448;28;20098;-83
2022/11/15 09:47:58;;;;;;;5.93;5.38;;;;;;;;;;5053309;28;20049;-84
2022/11/15 09:50:31;;;;;;;6.85;6.15;;;;;;;;;;5052577;28;20057;-83
2022/11/15 09:52:58;;;;;;;6.85;5.38;;;;;;;;;;5052719;28;20111;-84
2022/11/15 09:55:31;;;;;;;6.20;5.65;;;;;;;;;;5052323;28;20115;-83
2022/11/15 09:58:02;;;;;;;7.30;4.60;;;;;;;;;;5053077;28;20045;-83
2022/11/15 10:00:31;;;;;;;5.18;4.15;;;;;;;;;;5051547;28;20049;-83
2022/11/15 10:03:08;;;;;;;12.55;8.90;;;;;;;;;;5052651;28;20111;-85
2022/11/15 10:05:38;;;;;;;8.15;7.53;;;;;;;;;;5052237;28;20056;-84
2022/11/15 10:08:07;;;;;;;7.07;6.57;;;;;;;;;;5055997;28;20103;-84
2022/11/15 10:10:36;;;;;;;9.25;6.63;;;;;;;;;;5052298;28;20049;-84
2022/11/15 10:13:04;;;;;;;5.88;4.00;;;;;;;;;;5052538;28;20052;-83
2022/11/15 10:15:30;;;;;;;12.82;6.32;;;;;;;;;;5051970;28;20068;-83
2022/11/15 10:18:05;;;;;;;6.90;6.30;;;;;;;;;;5052273;28;20057;-84
2022/11/15 10:20:36;;;;;;;7.25;6.07;;;;;;;;;;5052178;28;20080;-83
2022/11/15 10:23:06;;;;;;;8.20;5.97;;;;;;;;;;5052499;28;20064;-84
2022/11/15 10:25:33;;;;;;;8.98;6.43;;;;;;;;;;5051700;28;20053;-84
2022/11/15 10:28:01;;;;;;;7.22;6.63;;;;;;;;;;5052420;28;20061;-84
2022/11/15 10:30:32;;;;;;;5.00;4.43;;;;;;;;;;5053373;28;20114;-84
2022/11/15 10:32:58;;;;;;;10.93;5.35;;;;;;;;;;5053447;28;20048;-83
2022/11/15 10:35:25;;;;;;;7.15;6.38;;;;;;;;;;5051795;28;20053;-84
2022/11/15 10:38:05;;;;;;;9.25;7.07;;;;;;;;;;5052503;28;20049;-84
2022/11/15 10:40:31;;;;;;;13.25;7.88;;;;;;;;;;5051593;28;20118;-84
2022/11/15 10:43:04;;;;;;;4.57;4.35;;;;;;;;;;5052144;28;20494;-84
2022/11/15 10:45:32;;;;;;;11.30;6.88;;;;;;;;;;5051853;28;20041;-84
2022/11/15 10:48:13;;;;;;;8.77;7.28;;;;;;;;;;5051915;28;20159;-84
2022/11/15 10:50:41;;;;;;;8.75;5.15;;;;;;;;;;5051195;28;20053;-84
2022/11/15 10:53:16;;;;;;;13.02;6.22;;;;;;;;;;5051963;28;20053;-83
2022/11/15 10:55:47;;;;;;;11.98;6.10;;;;;;;;;;5051151;28;20084;-85
2022/11/15 10:58:21;;;;;;;7.40;6.30;;;;;;;;;;5051882;28;20111;-83
2022/11/15 11:00:47;;;;;;;6.57;6.07;;;;;;;;;;5053260;28;20471;-84
2022/11/15 11:03:27;;;;;;;10.70;5.82;;;;;;;;;;5054045;28;20056;-84
2022/11/15 11:06:04;;;;;;;8.02;7.22;;;;;;;;;;5051314;28;20056;-84
2022/11/15 11:08:32;;;;;;;9.52;8.82;;;;;;;;;;5052183;28;20103;-84
2022/11/15 11:11:00;;;;;;;7.32;6.65;;;;;;;;;;5051452;28;20064;-84
2022/11/15 11:13:27;;;;;;;7.70;7.07;;;;;;;;;;5053929;28;20107;-84
2022/11/15 11:15:56;;;;;;;7.70;6.28;;;;;;;;;;5055293;28;20056;-84
2022/11/15 11:18:24;;;;;;;12.15;6.45;;;;;;;;;;5055793;28;20119;-84
2022/11/15 11:20:55;;;;;;;12.38;8.77;;;;;;;;;;5055317;28;20052;-84
2022/11/15 11:23:32;;;;;;;8.80;7.65;;;;;;;;;;5055827;28;20099;-84
2022/11/15 11:26:06;;;;;;;7.40;6.68;;;;;;;;;;5054780;28;20670;-84
2022/11/15 11:28:40;;;;;;;10.10;8.88;;;;;;;;;;5055593;28;20049;-84
2022/11/15 11:31:14;;;;;;;7.25;5.65;;;;;;;;;;5055814;28;20049;-85
2022/11/15 11:33:43;;;;;;;8.23;7.63;;;;;;;;;;5047404;28;20579;-86
2022/11/15 11:36:18;;;;;;;9.85;8.65;;;;;;;;;;5047551;28;20106;-86
2022/11/15 11:38:50;;;;;;;5.43;5.03;;;;;;;;;;5055541;28;20053;-86
2022/11/15 11:41:24;;;;;;;4.82;4.43;;;;;;;;;;5023786;28;20558;-85
2022/11/15 11:43:56;;;;;;;7.03;6.45;;;;;;;;;;5029272;28;20577;-86
2022/11/15 11:46:39;;;;;;;10.15;9.20;;;;;;;;;;5025851;28;20046;-85
2022/11/15 11:49:09;;;;;;;8.10;6.70;;;;;;;;;;5022116;28;20045;-86
2022/11/15 11:51:38;;;;;;;11.23;8.82;;;;;;;;;;5050199;28;20059;-85
2022/11/15 11:54:05;;;;;;;17.25;8.43;;;;;;;;;;5055248;28;20053;-86
2022/11/15 11:56:35;;;;;;;10.70;9.60;;;;;;;;;;5057944;28;20045;-86
2022/11/15 11:59:06;;;;;;;14.38;8.75;;;;;;;;;;5053624;28;20056;-86
2022/11/15 12:01:35;;;;;;;12.43;7.88;;;;;;;;;;5015425;28;20495;-85
2022/11/15 12:04:04;;;;;;;14.32;13.20;;;;;;;;;;5016771;28;20506;-85
2022/11/15 12:06:33;;;;;;;9.48;8.95;;;;;;;;;;5019407;28;20066;-85
2022/11/15 12:09:02;;;;;;;9.55;8.43;;;;;;;;;;5013734;28;20563;-86
2022/11/15 12:11:30;;;;;;;6.95;6.47;;;;;;;;;;5013754;28;20055;-87
2022/11/15 12:13:59;;;;;;;8.98;8.00;;;;;;;;;;5015498;28;20057;-85
2022/11/15 12:16:28;;;;;;;5.05;4.55;;;;;;;;;;5013931;28;20065;-85
2022/11/15 12:18:55;;;;;;;14.30;13.38;;;;;;;;;;5013689;28;20058;-87
2022/11/15 12:21:25;;;;;;;6.13;5.47;;;;;;;;;;5014508;28;20100;-86
2022/11/15 12:23:52;;;;;;;;;;;;;;;;;;5014142;28;20648;-85
2022/11/15 12:26:20;;;;;;;6.75;6.25;;;;;;;;;;5018188;28;19967;-87
2022/11/15 12:28:48;;;;;;;7.65;7.15;;;;;;;;;;5034737;28;20495;-86
2022/11/15 12:31:18;;;;;;;11.60;10.57;;;;;;;;;;5038542;28;20046;-86
2022/11/15 12:33:46;;;;;;;7.22;5.30;;;;;;;;;;5014273;28;20054;-86
2022/11/15 12:36:30;;;;;;;11.07;7.90;;;;;;;;;;5014780;28;20084;-86
2022/11/15 12:38:58;;;;;;;5.20;4.72;;;;;;;;;;5014910;28;20073;-85
2022/11/15 12:41:25;;;;;;;8.20;7.40;;;;;;;;;;5014209;28;20049;-85
2022/11/15 12:43:51;;;;;;;8.45;7.80;;;;;;;;;;5014885;28;20053;-85
2022/11/15 12:46:24;;;;;;;6.32;5.45;;;;;;;;;;5014569;28;20100;-86
2022/11/15 12:48:52;;;;;;;6.28;5.72;;;;;;;;;;5014335;28;20650;-85
2022/11/15 12:51:20;;;;;;;7.38;6.78;;;;;;;;;;5017408;28;20057;-85
2022/11/15 12:53:47;;;;;;;5.38;5.00;;;;;;;;;;5014301;28;20054;-85
2022/11/15 12:56:21;;;;;;;6.10;5.60;;;;;;;;;;5013852;28;20046;-85
2022/11/15 12:58:48;;;;;;;7.07;6.57;;;;;;;;;;5014220;28;20050;-85
2022/11/15 13:01:30;;;;;;;8.25;7.53;;;;;;;;;;5014018;28;20114;-85
2022/11/15 13:04:13;;;;;;;8.55;7.90;;;;;;;;;;5013048;28;20050;-85
2022/11/15 13:06:41;;;;;;;11.20;10.52;;;;;;;;;;5014333;28;20124;-85
2022/11/15 13:09:23;;;;;;;5.82;5.40;;;;;;;;;;5014566;28;20054;-85
2022/11/15 13:11:50;;;;;;;6.53;5.43;;;;;;;;;;5008096;28;20079;-85
2022/11/15 13:14:35;;;;;;;7.10;5.72;;;;;;;;;;5013922;28;20119;-85
2022/11/15 13:17:02;;;;;;;6.07;5.50;;;;;;;;;;5014058;28;20053;-85
2022/11/15 13:19:30;;;;;;;13.02;12.35;;;;;;;;;;5013651;28;20054;-85
2022/11/15 13:24:41;;;;;;;4.72;4.25;;;;;;;;;;5013703;28;20065;-85
2022/11/15 13:27:11;;;;;;;8.00;5.60;;;;;;;;;;5013597;28;20112;-85
2022/11/15 13:29:38;;;;;;;5.32;4.95;;;;;;;;;;5013465;28;20050;-85
2022/11/15 13:32:04;;;;;;;7.38;6.85;;;;;;;;;;5013806;28;20045;-85
2022/11/15 13:34:35;;;;;;;5.20;4.18;;;;;;;;;;5013140;28;20054;-85
2022/11/15 13:37:02;;;;;;;6.05;5.63;;;;;;;;;;5012968;28;20200;-86
2022/11/15 13:39:29;;;;;;;5.72;5.28;;;;;;;;;;5013829;28;20046;-85
2022/11/15 13:41:56;;;;;;;5.72;5.18;;;;;;;;;;5036869;28;20072;-85
2022/11/15 13:44:23;;;;;;;8.07;7.38;;;;;;;;;;5055000;28;20049;-84
2022/11/15 13:47:01;;;;;;;6.28;5.78;;;;;;;;;;5054606;28;20714;-85
2022/11/15 13:49:30;;;;;;;4.97;4.57;;;;;;;;;;5052660;28;20053;-85
2022/11/15 13:51:58;;;;;;;8.10;6.20;;;;;;;;;;5052578;28;20134;-85
2022/11/15 13:54:27;;;;;;;7.85;7.07;;;;;;;;;;5052881;28;20045;-84
2022/11/15 13:56:55;;;;;;;3.92;3.63;;;;;;;;;;5052036;28;20052;-85
2022/11/15 13:59:25;;;;;;;13.65;12.75;;;;;;;;;;5052722;28;20132;-85
2022/11/15 14:01:52;;;;;;;7.82;7.20;;;;;;;;;;5052248;28;20467;-85
2022/11/15 14:04:20;;;;;;;6.85;6.20;;;;;;;;;;5052180;28;20088;-85
2022/11/15 14:06:47;;;;;;;11.40;10.57;;;;;;;;;;5034527;28;20053;-84
2022/11/15 14:09:26;;;;;;;4.82;4.43;;;;;;;;;;5013103;28;20045;-84
2022/11/15 14:11:53;;;;;;;8.85;8.05;;;;;;;;;;5012756;28;20510;-85
2022/11/15 14:14:20;;;;;;;7.07;6.43;;;;;;;;;;5013027;28;20053;-85
2022/11/15 14:16:48;;;;;;;6.07;5.50;;;;;;;;;;5030234;28;20556;-84
2022/11/15 14:19:31;;;;;;;7.60;6.82;;;;;;;;;;5052358;28;20098;-85
2022/11/15 14:22:25;;;;;;;7.32;6.53;;;;;;;;;;5051744;28;20048;-85
2022/11/15 14:25:08;;;;;;;6.80;4.97;;;;;;;;;;4971430;28;20101;-84
2022/11/15 14:27:34;;;;;;;9.15;4.90;;;;;;;;;;4971036;28;20050;-85
2022/11/15 14:30:01;;;;;;;9.68;8.90;;;;;;;;;;4971777;28;20424;-84
2022/11/15 14:32:29;;;;;;;8.10;6.65;;;;;;;;;;4971149;28;20178;-84
2022/11/15 14:34:56;;;;;;;6.88;6.18;;;;;;;;;;4970796;28;20468;-85
2022/11/15 14:37:24;;;;;;;6.38;5.80;;;;;;;;;;4970648;28;20047;-84
2022/11/15 14:39:51;;;;;;;8.13;7.50;;;;;;;;;;4973894;28;20055;-85
2022/11/15 14:42:19;;;;;;;6.88;6.35;;;;;;;;;;4971311;28;20050;-86
2022/11/15 14:44:46;;;;;;;16.85;15.75;;;;;;;;;;4970994;28;20129;-85
2022/11/15 14:47:12;;;;;;;8.07;7.38;;;;;;;;;;4973119;28;20705;-85
2022/11/15 14:49:39;;;;;;;5.15;4.85;;;;;;;;;;4977074;28;20054;-85
2022/11/15 14:52:08;;;;;;;9.98;7.07;;;;;;;;;;4976828;28;20071;-86
2022/11/15 14:54:35;;;;;;;6.90;6.30;;;;;;;;;;4977112;28;20054;-85
2022/11/15 14:57:01;;;;;;;7.82;7.10;;;;;;;;;;4975993;28;20050;-85
2022/11/15 14:59:29;;;;;;;8.48;7.05;;;;;;;;;;4978600;28;20142;-84
2022/11/15 15:01:56;;;;;;;6.63;6.03;;;;;;;;;;5057389;28;20119;-85
2022/11/15 15:04:22;;;;;;;7.18;6.13;;;;;;;;;;5057936;28;20060;-86